sensor_id;sensor_type;location;lat;lon;timestamp;P1;durP1;ratioP1;P2;durP2;ratioP2
5343;SDS011;2694;48.950;8.970;2022-09-13T00:01:13;8.13;;;3.40;;
5343;SDS011;2694;48.950;8.970;2022-09-13T00:03:40;7.60;;;3.38;;
5343;SDS011;2694;48.950;8.970;2022-09-13T00:06:08;5.30;;;3.63;;
5343;SDS011;2694;48.950;8.970;2022-09-13T00:08:35;5.97;;;3.30;;
5343;SDS011;2694;48.950;8.970;2022-09-13T00:11:03;10.68;;;3.60;;
5343;SDS011;2694;48.950;8.970;2022-09-13T00:13:31;6.85;;;3.70;;
5343;SDS011;2694;48.950;8.970;2022-09-13T00:15:58;4.32;;;3.03;;
5343;SDS011;2694;48.950;8.970;2022-09-13T00:18:27;6.65;;;3.40;;
5343;SDS011;2694;48.950;8.970;2022-09-13T00:21:02;4.93;;;3.30;;
5343;SDS011;2694;48.950;8.970;2022-09-13T00:23:29;5.45;;;2.92;;
5343;SDS011;2694;48.950;8.970;2022-09-13T00:26:01;6.32;;;3.70;;
5343;SDS011;2694;48.950;8.970;2022-09-13T00:28:33;7.28;;;3.20;;
5343;SDS011;2694;48.950;8.970;2022-09-13T00:31:00;4.20;;;3.08;;
5343;SDS011;2694;48.950;8.970;2022-09-13T00:33:28;5.28;;;3.30;;
5343;SDS011;2694;48.950;8.970;2022-09-13T00:35:55;5.93;;;3.00;;
5343;SDS011;2694;48.950;8.970;2022-09-13T00:38:22;6.80;;;3.40;;
5343;SDS011;2694;48.950;8.970;2022-09-13T00:40:49;5.47;;;3.20;;
5343;SDS011;2694;48.950;8.970;2022-09-13T00:43:16;5.20;;;3.35;;
5343;SDS011;2694;48.950;8.970;2022-09-13T00:45:46;5.50;;;3.60;;
5343;SDS011;2694;48.950;8.970;2022-09-13T00:48:15;8.50;;;3.60;;
5343;SDS011;2694;48.950;8.970;2022-09-13T00:50:47;6.00;;;3.50;;
5343;SDS011;2694;48.950;8.970;2022-09-13T00:53:18;6.80;;;3.70;;
5343;SDS011;2694;48.950;8.970;2022-09-13T00:55:50;6.32;;;3.30;;
5343;SDS011;2694;48.950;8.970;2022-09-13T00:58:22;4.97;;;3.22;;
5343;SDS011;2694;48.950;8.970;2022-09-13T01:00:53;4.50;;;3.00;;
5343;SDS011;2694;48.950;8.970;2022-09-13T01:03:24;6.07;;;2.88;;
5343;SDS011;2694;48.950;8.970;2022-09-13T01:05:54;7.18;;;3.45;;
5343;SDS011;2694;48.950;8.970;2022-09-13T01:08:25;5.15;;;3.20;;
5343;SDS011;2694;48.950;8.970;2022-09-13T01:10:53;6.90;;;3.28;;
5343;SDS011;2694;48.950;8.970;2022-09-13T01:13:24;6.85;;;2.95;;
5343;SDS011;2694;48.950;8.970;2022-09-13T01:15:55;5.50;;;2.97;;
5343;SDS011;2694;48.950;8.970;2022-09-13T01:18:22;4.53;;;3.00;;
5343;SDS011;2694;48.950;8.970;2022-09-13T01:21:11;6.15;;;2.90;;
5343;SDS011;2694;48.950;8.970;2022-09-13T01:24:03;4.70;;;2.60;;
5343;SDS011;2694;48.950;8.970;2022-09-13T01:27:00;5.15;;;2.85;;
5343;SDS011;2694;48.950;8.970;2022-09-13T01:32:32;7.32;;;3.20;;
5343;SDS011;2694;48.950;8.970;2022-09-13T01:35:12;4.63;;;3.00;;
5343;SDS011;2694;48.950;8.970;2022-09-13T01:37:49;4.47;;;3.10;;
5343;SDS011;2694;48.950;8.970;2022-09-13T01:40:23;5.10;;;3.10;;
5343;SDS011;2694;48.950;8.970;2022-09-13T01:43:06;5.03;;;2.70;;
5343;SDS011;2694;48.950;8.970;2022-09-13T01:45:47;6.47;;;3.50;;
5343;SDS011;2694;48.950;8.970;2022-09-13T01:48:22;6.97;;;3.50;;
5343;SDS011;2694;48.950;8.970;2022-09-13T01:50:57;7.18;;;3.60;;
5343;SDS011;2694;48.950;8.970;2022-09-13T01:53:31;7.20;;;3.57;;
5343;SDS011;2694;48.950;8.970;2022-09-13T01:56:06;6.57;;;3.00;;
5343;SDS011;2694;48.950;8.970;2022-09-13T01:58:37;6.80;;;3.40;;
5343;SDS011;2694;48.950;8.970;2022-09-13T02:01:10;3.57;;;2.80;;
5343;SDS011;2694;48.950;8.970;2022-09-13T02:03:42;5.20;;;3.67;;
5343;SDS011;2694;48.950;8.970;2022-09-13T02:06:11;4.87;;;3.50;;
5343;SDS011;2694;48.950;8.970;2022-09-13T02:08:42;3.38;;;2.50;;
5343;SDS011;2694;48.950;8.970;2022-09-13T02:11:14;4.10;;;3.20;;
5343;SDS011;2694;48.950;8.970;2022-09-13T02:13:45;6.27;;;3.40;;
5343;SDS011;2694;48.950;8.970;2022-09-13T02:16:18;5.33;;;2.67;;
5343;SDS011;2694;48.950;8.970;2022-09-13T02:18:54;3.45;;;2.90;;
5343;SDS011;2694;48.950;8.970;2022-09-13T02:21:24;7.38;;;3.35;;
5343;SDS011;2694;48.950;8.970;2022-09-13T02:23:54;4.85;;;3.45;;
5343;SDS011;2694;48.950;8.970;2022-09-13T02:26:27;4.15;;;3.15;;
5343;SDS011;2694;48.950;8.970;2022-09-13T02:28:56;5.63;;;2.90;;
5343;SDS011;2694;48.950;8.970;2022-09-13T02:31:27;9.05;;;3.60;;
5343;SDS011;2694;48.950;8.970;2022-09-13T02:33:58;5.53;;;3.05;;
5343;SDS011;2694;48.950;8.970;2022-09-13T02:36:28;4.97;;;3.70;;
5343;SDS011;2694;48.950;8.970;2022-09-13T02:38:58;7.30;;;3.70;;
5343;SDS011;2694;48.950;8.970;2022-09-13T02:41:29;5.22;;;3.00;;
5343;SDS011;2694;48.950;8.970;2022-09-13T02:44:01;4.63;;;3.10;;
5343;SDS011;2694;48.950;8.970;2022-09-13T02:46:39;5.30;;;3.70;;
5343;SDS011;2694;48.950;8.970;2022-09-13T02:49:19;7.40;;;3.50;;
5343;SDS011;2694;48.950;8.970;2022-09-13T02:51:52;6.65;;;3.65;;
5343;SDS011;2694;48.950;8.970;2022-09-13T02:54:23;7.20;;;3.08;;
5343;SDS011;2694;48.950;8.970;2022-09-13T02:56:56;10.15;;;3.35;;
5343;SDS011;2694;48.950;8.970;2022-09-13T02:59:26;7.28;;;3.40;;
5343;SDS011;2694;48.950;8.970;2022-09-13T03:01:55;5.97;;;3.30;;
5343;SDS011;2694;48.950;8.970;2022-09-13T03:04:25;3.27;;;2.50;;
5343;SDS011;2694;48.950;8.970;2022-09-13T03:06:52;3.35;;;2.67;;
5343;SDS011;2694;48.950;8.970;2022-09-13T03:09:19;6.03;;;3.17;;
5343;SDS011;2694;48.950;8.970;2022-09-13T03:12:02;4.30;;;2.80;;
5343;SDS011;2694;48.950;8.970;2022-09-13T03:14:42;6.28;;;3.30;;
5343;SDS011;2694;48.950;8.970;2022-09-13T03:17:17;5.57;;;2.95;;
5343;SDS011;2694;48.950;8.970;2022-09-13T03:19:52;4.30;;;2.80;;
5343;SDS011;2694;48.950;8.970;2022-09-13T03:22:35;4.80;;;2.60;;
5343;SDS011;2694;48.950;8.970;2022-09-13T03:25:16;3.78;;;2.97;;
5343;SDS011;2694;48.950;8.970;2022-09-13T03:27:54;4.32;;;3.20;;
5343;SDS011;2694;48.950;8.970;2022-09-13T03:30:27;5.75;;;3.50;;
5343;SDS011;2694;48.950;8.970;2022-09-13T03:32:58;6.82;;;2.80;;
5343;SDS011;2694;48.950;8.970;2022-09-13T03:35:28;5.10;;;2.90;;
5343;SDS011;2694;48.950;8.970;2022-09-13T03:38:03;4.75;;;2.70;;
5343;SDS011;2694;48.950;8.970;2022-09-13T03:40:34;5.15;;;3.28;;
5343;SDS011;2694;48.950;8.970;2022-09-13T03:43:07;5.07;;;2.90;;
5343;SDS011;2694;48.950;8.970;2022-09-13T03:45:37;3.60;;;2.57;;
5343;SDS011;2694;48.950;8.970;2022-09-13T03:48:08;6.77;;;3.30;;
5343;SDS011;2694;48.950;8.970;2022-09-13T03:50:37;5.70;;;3.20;;
5343;SDS011;2694;48.950;8.970;2022-09-13T03:53:06;5.28;;;3.33;;
5343;SDS011;2694;48.950;8.970;2022-09-13T03:55:37;8.15;;;4.80;;
5343;SDS011;2694;48.950;8.970;2022-09-13T03:58:06;6.70;;;3.67;;
5343;SDS011;2694;48.950;8.970;2022-09-13T04:00:34;6.82;;;4.15;;
5343;SDS011;2694;48.950;8.970;2022-09-13T04:03:02;6.25;;;3.53;;
5343;SDS011;2694;48.950;8.970;2022-09-13T04:05:31;6.00;;;3.60;;
5343;SDS011;2694;48.950;8.970;2022-09-13T04:07:58;6.20;;;3.33;;
5343;SDS011;2694;48.950;8.970;2022-09-13T04:10:25;5.60;;;3.70;;
5343;SDS011;2694;48.950;8.970;2022-09-13T04:12:52;5.70;;;3.78;;
5343;SDS011;2694;48.950;8.970;2022-09-13T04:15:19;5.63;;;3.65;;
5343;SDS011;2694;48.950;8.970;2022-09-13T04:17:47;5.18;;;3.60;;
5343;SDS011;2694;48.950;8.970;2022-09-13T04:20:13;6.72;;;3.55;;
5343;SDS011;2694;48.950;8.970;2022-09-13T04:22:42;5.53;;;3.72;;
5343;SDS011;2694;48.950;8.970;2022-09-13T04:25:09;6.78;;;4.90;;
5343;SDS011;2694;48.950;8.970;2022-09-13T04:27:35;10.37;;;5.87;;
5343;SDS011;2694;48.950;8.970;2022-09-13T04:30:02;6.55;;;4.40;;
5343;SDS011;2694;48.950;8.970;2022-09-13T04:32:30;9.25;;;4.00;;
5343;SDS011;2694;48.950;8.970;2022-09-13T04:34:57;5.82;;;3.53;;
5343;SDS011;2694;48.950;8.970;2022-09-13T04:37:24;4.10;;;2.90;;
5343;SDS011;2694;48.950;8.970;2022-09-13T04:39:53;5.43;;;3.05;;
5343;SDS011;2694;48.950;8.970;2022-09-13T04:42:20;4.68;;;2.90;;
5343;SDS011;2694;48.950;8.970;2022-09-13T04:44:46;7.43;;;3.70;;
5343;SDS011;2694;48.950;8.970;2022-09-13T04:47:14;5.65;;;3.33;;
5343;SDS011;2694;48.950;8.970;2022-09-13T04:49:40;6.93;;;3.30;;
5343;SDS011;2694;48.950;8.970;2022-09-13T04:52:07;4.73;;;2.93;;
5343;SDS011;2694;48.950;8.970;2022-09-13T04:54:34;7.70;;;3.25;;
5343;SDS011;2694;48.950;8.970;2022-09-13T04:57:03;5.70;;;3.40;;
5343;SDS011;2694;48.950;8.970;2022-09-13T04:59:30;5.78;;;2.90;;
5343;SDS011;2694;48.950;8.970;2022-09-13T05:01:57;4.90;;;2.90;;
5343;SDS011;2694;48.950;8.970;2022-09-13T05:04:25;5.40;;;3.13;;
5343;SDS011;2694;48.950;8.970;2022-09-13T05:06:52;6.80;;;3.38;;
5343;SDS011;2694;48.950;8.970;2022-09-13T05:09:18;8.85;;;3.35;;
5343;SDS011;2694;48.950;8.970;2022-09-13T05:11:45;5.97;;;3.95;;
5343;SDS011;2694;48.950;8.970;2022-09-13T05:14:13;5.07;;;3.10;;
5343;SDS011;2694;48.950;8.970;2022-09-13T05:16:40;9.32;;;3.63;;
5343;SDS011;2694;48.950;8.970;2022-09-13T05:19:07;7.03;;;3.60;;
5343;SDS011;2694;48.950;8.970;2022-09-13T05:21:35;7.82;;;3.95;;
5343;SDS011;2694;48.950;8.970;2022-09-13T05:24:02;7.35;;;4.13;;
5343;SDS011;2694;48.950;8.970;2022-09-13T05:26:29;5.72;;;4.30;;
5343;SDS011;2694;48.950;8.970;2022-09-13T05:28:56;7.55;;;4.75;;
5343;SDS011;2694;48.950;8.970;2022-09-13T05:31:28;6.40;;;3.88;;
5343;SDS011;2694;48.950;8.970;2022-09-13T05:33:57;5.68;;;3.53;;
5343;SDS011;2694;48.950;8.970;2022-09-13T05:36:25;6.50;;;3.33;;
5343;SDS011;2694;48.950;8.970;2022-09-13T05:38:52;9.50;;;3.10;;
5343;SDS011;2694;48.950;8.970;2022-09-13T05:41:19;5.87;;;3.10;;
5343;SDS011;2694;48.950;8.970;2022-09-13T05:43:46;8.13;;;4.30;;
5343;SDS011;2694;48.950;8.970;2022-09-13T05:46:14;4.85;;;3.63;;
5343;SDS011;2694;48.950;8.970;2022-09-13T05:48:43;7.68;;;3.72;;
5343;SDS011;2694;48.950;8.970;2022-09-13T05:51:11;6.03;;;3.40;;
5343;SDS011;2694;48.950;8.970;2022-09-13T05:53:39;7.03;;;3.47;;
5343;SDS011;2694;48.950;8.970;2022-09-13T05:56:10;6.55;;;4.00;;
5343;SDS011;2694;48.950;8.970;2022-09-13T05:58:38;7.75;;;4.30;;
5343;SDS011;2694;48.950;8.970;2022-09-13T06:01:06;8.15;;;4.45;;
5343;SDS011;2694;48.950;8.970;2022-09-13T06:03:33;5.47;;;3.67;;
5343;SDS011;2694;48.950;8.970;2022-09-13T06:06:02;5.18;;;3.20;;
5343;SDS011;2694;48.950;8.970;2022-09-13T06:08:29;6.78;;;3.35;;
5343;SDS011;2694;48.950;8.970;2022-09-13T06:10:58;7.25;;;3.50;;
5343;SDS011;2694;48.950;8.970;2022-09-13T06:13:27;7.93;;;3.33;;
5343;SDS011;2694;48.950;8.970;2022-09-13T06:15:55;7.78;;;3.90;;
5343;SDS011;2694;48.950;8.970;2022-09-13T06:18:23;5.83;;;3.50;;
5343;SDS011;2694;48.950;8.970;2022-09-13T06:20:50;6.47;;;3.33;;
5343;SDS011;2694;48.950;8.970;2022-09-13T06:23:18;6.80;;;3.40;;
5343;SDS011;2694;48.950;8.970;2022-09-13T06:25:45;5.18;;;2.80;;
5343;SDS011;2694;48.950;8.970;2022-09-13T06:28:12;5.70;;;3.30;;
5343;SDS011;2694;48.950;8.970;2022-09-13T06:30:39;7.35;;;3.30;;
5343;SDS011;2694;48.950;8.970;2022-09-13T06:33:05;5.70;;;3.20;;
5343;SDS011;2694;48.950;8.970;2022-09-13T06:35:32;5.20;;;3.25;;
5343;SDS011;2694;48.950;8.970;2022-09-13T06:37:59;9.70;;;4.00;;
5343;SDS011;2694;48.950;8.970;2022-09-13T06:40:27;9.52;;;3.50;;
5343;SDS011;2694;48.950;8.970;2022-09-13T06:42:54;5.28;;;3.40;;
5343;SDS011;2694;48.950;8.970;2022-09-13T06:45:21;5.15;;;3.53;;
5343;SDS011;2694;48.950;8.970;2022-09-13T06:47:47;4.68;;;3.28;;
5343;SDS011;2694;48.950;8.970;2022-09-13T06:50:14;7.20;;;4.18;;
5343;SDS011;2694;48.950;8.970;2022-09-13T06:52:42;5.55;;;3.65;;
5343;SDS011;2694;48.950;8.970;2022-09-13T06:55:08;7.63;;;4.15;;
5343;SDS011;2694;48.950;8.970;2022-09-13T06:57:37;6.57;;;4.07;;
5343;SDS011;2694;48.950;8.970;2022-09-13T07:00:04;6.97;;;4.30;;
5343;SDS011;2694;48.950;8.970;2022-09-13T07:02:31;7.13;;;3.80;;
5343;SDS011;2694;48.950;8.970;2022-09-13T07:04:58;5.30;;;3.60;;
5343;SDS011;2694;48.950;8.970;2022-09-13T07:07:25;7.10;;;3.80;;
5343;SDS011;2694;48.950;8.970;2022-09-13T07:09:51;5.22;;;3.30;;
5343;SDS011;2694;48.950;8.970;2022-09-13T07:12:18;5.95;;;3.50;;
5343;SDS011;2694;48.950;8.970;2022-09-13T07:14:46;4.55;;;3.30;;
5343;SDS011;2694;48.950;8.970;2022-09-13T07:17:13;5.87;;;2.63;;
5343;SDS011;2694;48.950;8.970;2022-09-13T07:19:40;5.68;;;3.15;;
5343;SDS011;2694;48.950;8.970;2022-09-13T07:22:07;7.55;;;3.08;;
5343;SDS011;2694;48.950;8.970;2022-09-13T07:24:34;4.90;;;2.47;;
5343;SDS011;2694;48.950;8.970;2022-09-13T07:27:01;6.40;;;3.10;;
5343;SDS011;2694;48.950;8.970;2022-09-13T07:29:28;5.80;;;3.00;;
5343;SDS011;2694;48.950;8.970;2022-09-13T07:31:56;7.30;;;2.40;;
5343;SDS011;2694;48.950;8.970;2022-09-13T07:34:24;5.27;;;2.80;;
5343;SDS011;2694;48.950;8.970;2022-09-13T07:36:51;3.25;;;2.20;;
5343;SDS011;2694;48.950;8.970;2022-09-13T07:39:18;4.90;;;2.50;;
5343;SDS011;2694;48.950;8.970;2022-09-13T07:41:45;4.47;;;2.60;;
5343;SDS011;2694;48.950;8.970;2022-09-13T07:44:12;6.35;;;2.20;;
5343;SDS011;2694;48.950;8.970;2022-09-13T07:46:40;5.13;;;2.83;;
5343;SDS011;2694;48.950;8.970;2022-09-13T07:49:09;4.15;;;2.60;;
5343;SDS011;2694;48.950;8.970;2022-09-13T07:51:38;6.40;;;2.70;;
5343;SDS011;2694;48.950;8.970;2022-09-13T07:54:08;4.45;;;2.60;;
5343;SDS011;2694;48.950;8.970;2022-09-13T07:56:37;3.38;;;2.55;;
5343;SDS011;2694;48.950;8.970;2022-09-13T07:59:06;4.25;;;2.40;;
5343;SDS011;2694;48.950;8.970;2022-09-13T08:01:37;10.43;;;2.70;;
5343;SDS011;2694;48.950;8.970;2022-09-13T08:04:06;5.97;;;3.40;;
5343;SDS011;2694;48.950;8.970;2022-09-13T08:06:36;8.68;;;3.03;;
5343;SDS011;2694;48.950;8.970;2022-09-13T08:09:05;3.90;;;2.30;;
5343;SDS011;2694;48.950;8.970;2022-09-13T08:11:33;9.05;;;3.03;;
5343;SDS011;2694;48.950;8.970;2022-09-13T08:14:02;6.20;;;2.70;;
5343;SDS011;2694;48.950;8.970;2022-09-13T08:16:30;8.32;;;3.25;;
5343;SDS011;2694;48.950;8.970;2022-09-13T08:18:58;4.30;;;2.40;;
5343;SDS011;2694;48.950;8.970;2022-09-13T08:21:30;3.97;;;2.60;;
5343;SDS011;2694;48.950;8.970;2022-09-13T08:23:57;5.93;;;2.80;;
5343;SDS011;2694;48.950;8.970;2022-09-13T08:26:24;4.32;;;2.67;;
5343;SDS011;2694;48.950;8.970;2022-09-13T08:28:54;5.35;;;2.25;;
5343;SDS011;2694;48.950;8.970;2022-09-13T08:31:22;9.48;;;2.90;;
5343;SDS011;2694;48.950;8.970;2022-09-13T08:33:49;8.38;;;3.05;;
5343;SDS011;2694;48.950;8.970;2022-09-13T08:36:17;9.25;;;3.30;;
5343;SDS011;2694;48.950;8.970;2022-09-13T08:38:46;4.70;;;2.92;;
5343;SDS011;2694;48.950;8.970;2022-09-13T08:41:26;8.80;;;3.03;;
5343;SDS011;2694;48.950;8.970;2022-09-13T08:44:10;6.93;;;2.80;;
5343;SDS011;2694;48.950;8.970;2022-09-13T08:46:43;11.32;;;2.70;;
5343;SDS011;2694;48.950;8.970;2022-09-13T08:49:11;12.40;;;2.80;;
5343;SDS011;2694;48.950;8.970;2022-09-13T08:51:44;4.47;;;2.63;;
5343;SDS011;2694;48.950;8.970;2022-09-13T08:54:14;4.30;;;2.60;;
5343;SDS011;2694;48.950;8.970;2022-09-13T08:56:43;5.57;;;2.25;;
5343;SDS011;2694;48.950;8.970;2022-09-13T08:59:15;7.38;;;2.53;;
5343;SDS011;2694;48.950;8.970;2022-09-13T09:01:53;4.35;;;2.90;;
5343;SDS011;2694;48.950;8.970;2022-09-13T09:04:36;8.45;;;2.70;;
5343;SDS011;2694;48.950;8.970;2022-09-13T09:07:08;7.75;;;2.80;;
5343;SDS011;2694;48.950;8.970;2022-09-13T09:09:40;6.40;;;2.60;;
5343;SDS011;2694;48.950;8.970;2022-09-13T09:12:16;9.27;;;3.00;;
5343;SDS011;2694;48.950;8.970;2022-09-13T09:14:52;10.37;;;3.63;;
5343;SDS011;2694;48.950;8.970;2022-09-13T09:17:26;8.32;;;3.45;;
5343;SDS011;2694;48.950;8.970;2022-09-13T09:20:02;6.50;;;2.80;;
5343;SDS011;2694;48.950;8.970;2022-09-13T09:22:34;9.95;;;3.95;;
5343;SDS011;2694;48.950;8.970;2022-09-13T09:25:03;7.07;;;2.83;;
5343;SDS011;2694;48.950;8.970;2022-09-13T09:27:30;7.10;;;3.03;;
5343;SDS011;2694;48.950;8.970;2022-09-13T09:29:58;6.70;;;2.22;;
5343;SDS011;2694;48.950;8.970;2022-09-13T09:32:34;8.25;;;3.17;;
5343;SDS011;2694;48.950;8.970;2022-09-13T09:35:09;6.53;;;2.83;;
5343;SDS011;2694;48.950;8.970;2022-09-13T09:37:41;4.85;;;2.38;;
5343;SDS011;2694;48.950;8.970;2022-09-13T09:40:14;6.53;;;2.80;;
5343;SDS011;2694;48.950;8.970;2022-09-13T09:42:42;9.60;;;2.67;;
5343;SDS011;2694;48.950;8.970;2022-09-13T09:45:19;8.55;;;2.40;;
5343;SDS011;2694;48.950;8.970;2022-09-13T09:47:51;7.70;;;3.00;;
5343;SDS011;2694;48.950;8.970;2022-09-13T09:50:21;6.60;;;2.40;;
5343;SDS011;2694;48.950;8.970;2022-09-13T09:52:50;4.93;;;2.28;;
5343;SDS011;2694;48.950;8.970;2022-09-13T09:55:26;4.78;;;2.30;;
5343;SDS011;2694;48.950;8.970;2022-09-13T09:57:55;9.23;;;2.70;;
5343;SDS011;2694;48.950;8.970;2022-09-13T10:00:24;8.82;;;2.70;;
5343;SDS011;2694;48.950;8.970;2022-09-13T10:02:54;6.90;;;2.47;;
5343;SDS011;2694;48.950;8.970;2022-09-13T10:05:22;6.70;;;2.30;;
5343;SDS011;2694;48.950;8.970;2022-09-13T10:07:51;7.97;;;2.43;;
5343;SDS011;2694;48.950;8.970;2022-09-13T10:10:22;6.82;;;2.20;;
5343;SDS011;2694;48.950;8.970;2022-09-13T10:12:57;5.78;;;1.80;;
5343;SDS011;2694;48.950;8.970;2022-09-13T10:15:25;7.43;;;2.60;;
5343;SDS011;2694;48.950;8.970;2022-09-13T10:18:12;5.63;;;2.20;;
5343;SDS011;2694;48.950;8.970;2022-09-13T10:20:41;4.93;;;2.00;;
5343;SDS011;2694;48.950;8.970;2022-09-13T10:23:18;7.45;;;2.35;;
5343;SDS011;2694;48.950;8.970;2022-09-13T10:25:58;3.47;;;1.80;;
5343;SDS011;2694;48.950;8.970;2022-09-13T10:28:29;4.88;;;2.00;;
5343;SDS011;2694;48.950;8.970;2022-09-13T10:30:57;4.00;;;1.73;;
5343;SDS011;2694;48.950;8.970;2022-09-13T10:33:29;4.20;;;1.90;;
5343;SDS011;2694;48.950;8.970;2022-09-13T10:35:59;5.10;;;1.80;;
5343;SDS011;2694;48.950;8.970;2022-09-13T10:38:30;6.85;;;1.98;;
5343;SDS011;2694;48.950;8.970;2022-09-13T10:41:00;7.53;;;2.00;;
5343;SDS011;2694;48.950;8.970;2022-09-13T10:43:29;8.10;;;2.10;;
5343;SDS011;2694;48.950;8.970;2022-09-13T10:45:58;4.82;;;1.40;;
5343;SDS011;2694;48.950;8.970;2022-09-13T10:48:28;3.05;;;1.67;;
5343;SDS011;2694;48.950;8.970;2022-09-13T10:51:00;6.53;;;1.65;;
5343;SDS011;2694;48.950;8.970;2022-09-13T10:53:30;4.57;;;1.50;;
5343;SDS011;2694;48.950;8.970;2022-09-13T10:56:01;8.50;;;2.15;;
5343;SDS011;2694;48.950;8.970;2022-09-13T10:58:29;11.80;;;1.55;;
5343;SDS011;2694;48.950;8.970;2022-09-13T11:01:09;2.97;;;1.40;;
5343;SDS011;2694;48.950;8.970;2022-09-13T11:04:14;4.43;;;1.50;;
5343;SDS011;2694;48.950;8.970;2022-09-13T11:07:02;3.13;;;1.30;;
5343;SDS011;2694;48.950;8.970;2022-09-13T11:09:32;1.30;;;1.00;;
5343;SDS011;2694;48.950;8.970;2022-09-13T11:12:08;3.30;;;0.93;;
5343;SDS011;2694;48.950;8.970;2022-09-13T11:14:49;1.50;;;0.80;;
5343;SDS011;2694;48.950;8.970;2022-09-13T11:17:27;1.55;;;0.70;;
5343;SDS011;2694;48.950;8.970;2022-09-13T11:20:01;0.80;;;0.60;;
5343;SDS011;2694;48.950;8.970;2022-09-13T11:22:58;1.73;;;0.63;;
5343;SDS011;2694;48.950;8.970;2022-09-13T11:25:39;2.88;;;1.00;;
5343;SDS011;2694;48.950;8.970;2022-09-13T11:28:19;1.10;;;0.90;;
5343;SDS011;2694;48.950;8.970;2022-09-13T11:30:58;3.25;;;1.05;;
5343;SDS011;2694;48.950;8.970;2022-09-13T11:33:29;2.10;;;0.90;;
5343;SDS011;2694;48.950;8.970;2022-09-13T11:36:09;5.30;;;1.10;;
5343;SDS011;2694;48.950;8.970;2022-09-13T11:39:00;1.50;;;1.03;;
5343;SDS011;2694;48.950;8.970;2022-09-13T11:41:37;2.17;;;1.00;;
5343;SDS011;2694;48.950;8.970;2022-09-13T11:44:25;2.33;;;1.20;;
5343;SDS011;2694;48.950;8.970;2022-09-13T11:46:59;1.88;;;0.60;;
5343;SDS011;2694;48.950;8.970;2022-09-13T11:49:42;3.40;;;1.20;;
5343;SDS011;2694;48.950;8.970;2022-09-13T11:52:26;2.30;;;0.85;;
5343;SDS011;2694;48.950;8.970;2022-09-13T11:54:59;2.00;;;0.80;;
5343;SDS011;2694;48.950;8.970;2022-09-13T11:57:31;2.00;;;0.70;;
5343;SDS011;2694;48.950;8.970;2022-09-13T12:00:04;2.38;;;0.88;;
5343;SDS011;2694;48.950;8.970;2022-09-13T12:02:41;1.20;;;0.57;;
5343;SDS011;2694;48.950;8.970;2022-09-13T12:05:14;2.30;;;0.60;;
5343;SDS011;2694;48.950;8.970;2022-09-13T12:07:48;0.80;;;0.60;;
5343;SDS011;2694;48.950;8.970;2022-09-13T12:10:20;3.20;;;0.80;;
5343;SDS011;2694;48.950;8.970;2022-09-13T12:12:50;2.20;;;0.60;;
5343;SDS011;2694;48.950;8.970;2022-09-13T12:15:21;0.80;;;0.68;;
5343;SDS011;2694;48.950;8.970;2022-09-13T12:17:55;1.30;;;0.70;;
5343;SDS011;2694;48.950;8.970;2022-09-13T12:20:28;1.10;;;0.50;;
5343;SDS011;2694;48.950;8.970;2022-09-13T12:22:58;1.40;;;0.52;;
5343;SDS011;2694;48.950;8.970;2022-09-13T12:25:30;3.95;;;0.60;;
5343;SDS011;2694;48.950;8.970;2022-09-13T12:28:05;0.90;;;0.50;;
5343;SDS011;2694;48.950;8.970;2022-09-13T12:30:41;0.90;;;0.50;;
5343;SDS011;2694;48.950;8.970;2022-09-13T12:33:13;2.70;;;0.60;;
5343;SDS011;2694;48.950;8.970;2022-09-13T12:35:44;1.60;;;0.50;;
5343;SDS011;2694;48.950;8.970;2022-09-13T12:38:25;1.25;;;0.60;;
5343;SDS011;2694;48.950;8.970;2022-09-13T12:41:03;2.40;;;1.08;;
5343;SDS011;2694;48.950;8.970;2022-09-13T12:46:56;1.35;;;0.50;;
5343;SDS011;2694;48.950;8.970;2022-09-13T12:49:42;1.85;;;0.63;;
5343;SDS011;2694;48.950;8.970;2022-09-13T12:52:26;3.45;;;1.42;;
5343;SDS011;2694;48.950;8.970;2022-09-13T12:57:41;2.78;;;1.13;;
5343;SDS011;2694;48.950;8.970;2022-09-13T13:00:12;2.47;;;0.50;;
5343;SDS011;2694;48.950;8.970;2022-09-13T13:02:51;2.40;;;0.70;;
5343;SDS011;2694;48.950;8.970;2022-09-13T13:05:26;2.30;;;0.80;;
5343;SDS011;2694;48.950;8.970;2022-09-13T13:07:56;2.88;;;0.98;;
5343;SDS011;2694;48.950;8.970;2022-09-13T13:10:27;2.45;;;0.80;;
5343;SDS011;2694;48.950;8.970;2022-09-13T13:12:57;4.28;;;0.95;;
5343;SDS011;2694;48.950;8.970;2022-09-13T13:15:57;2.80;;;0.80;;
5343;SDS011;2694;48.950;8.970;2022-09-13T13:18:28;1.50;;;0.70;;
5343;SDS011;2694;48.950;8.970;2022-09-13T13:21:05;2.50;;;0.73;;
5343;SDS011;2694;48.950;8.970;2022-09-13T13:23:48;0.98;;;0.50;;
5343;SDS011;2694;48.950;8.970;2022-09-13T13:26:55;1.50;;;0.60;;
5343;SDS011;2694;48.950;8.970;2022-09-13T13:29:24;7.38;;;4.50;;
5343;SDS011;2694;48.950;8.970;2022-09-13T13:34:39;2.30;;;0.70;;
5343;SDS011;2694;48.950;8.970;2022-09-13T13:37:27;3.97;;;0.80;;
5343;SDS011;2694;48.950;8.970;2022-09-13T13:40:12;2.42;;;0.70;;
5343;SDS011;2694;48.950;8.970;2022-09-13T13:42:48;2.10;;;0.68;;
5343;SDS011;2694;48.950;8.970;2022-09-13T13:45:17;2.83;;;0.60;;
5343;SDS011;2694;48.950;8.970;2022-09-13T13:47:53;2.67;;;0.75;;
5343;SDS011;2694;48.950;8.970;2022-09-13T13:50:32;2.30;;;0.75;;
5343;SDS011;2694;48.950;8.970;2022-09-13T13:53:16;1.50;;;0.50;;
5343;SDS011;2694;48.950;8.970;2022-09-13T13:55:48;0.73;;;0.50;;
5343;SDS011;2694;48.950;8.970;2022-09-13T13:58:32;2.60;;;0.80;;
5343;SDS011;2694;48.950;8.970;2022-09-13T14:01:10;3.15;;;0.80;;
5343;SDS011;2694;48.950;8.970;2022-09-13T14:06:39;4.10;;;0.80;;
5343;SDS011;2694;48.950;8.970;2022-09-13T14:09:18;2.47;;;0.63;;
5343;SDS011;2694;48.950;8.970;2022-09-13T14:11:58;4.50;;;0.70;;
5343;SDS011;2694;48.950;8.970;2022-09-13T14:14:38;3.55;;;0.90;;
5343;SDS011;2694;48.950;8.970;2022-09-13T14:17:25;3.50;;;0.45;;
5343;SDS011;2694;48.950;8.970;2022-09-13T14:20:15;1.67;;;0.60;;
5343;SDS011;2694;48.950;8.970;2022-09-13T14:22:43;3.80;;;0.80;;
5343;SDS011;2694;48.950;8.970;2022-09-13T14:25:15;3.28;;;0.80;;
5343;SDS011;2694;48.950;8.970;2022-09-13T14:27:42;1.77;;;0.50;;
5343;SDS011;2694;48.950;8.970;2022-09-13T14:30:17;2.80;;;0.90;;
5343;SDS011;2694;48.950;8.970;2022-09-13T14:32:46;4.60;;;0.80;;
5343;SDS011;2694;48.950;8.970;2022-09-13T14:35:23;2.60;;;0.90;;
5343;SDS011;2694;48.950;8.970;2022-09-13T14:37:52;5.13;;;0.70;;
5343;SDS011;2694;48.950;8.970;2022-09-13T14:40:20;3.10;;;0.60;;
5343;SDS011;2694;48.950;8.970;2022-09-13T14:42:50;2.40;;;0.77;;
5343;SDS011;2694;48.950;8.970;2022-09-13T14:45:19;2.63;;;0.82;;
5343;SDS011;2694;48.950;8.970;2022-09-13T14:47:50;3.08;;;0.90;;
5343;SDS011;2694;48.950;8.970;2022-09-13T14:50:23;1.10;;;0.50;;
5343;SDS011;2694;48.950;8.970;2022-09-13T14:52:55;1.10;;;0.80;;
5343;SDS011;2694;48.950;8.970;2022-09-13T14:55:25;4.25;;;0.60;;
5343;SDS011;2694;48.950;8.970;2022-09-13T14:57:55;1.60;;;0.50;;
5343;SDS011;2694;48.950;8.970;2022-09-13T15:00:29;4.10;;;0.70;;
5343;SDS011;2694;48.950;8.970;2022-09-13T15:02:57;2.40;;;0.60;;
5343;SDS011;2694;48.950;8.970;2022-09-13T15:05:28;4.30;;;0.70;;
5343;SDS011;2694;48.950;8.970;2022-09-13T15:07:57;1.15;;;0.70;;
5343;SDS011;2694;48.950;8.970;2022-09-13T15:10:24;1.70;;;0.75;;
5343;SDS011;2694;48.950;8.970;2022-09-13T15:12:53;2.80;;;0.80;;
5343;SDS011;2694;48.950;8.970;2022-09-13T15:15:35;1.20;;;0.70;;
5343;SDS011;2694;48.950;8.970;2022-09-13T15:18:04;4.25;;;0.70;;
5343;SDS011;2694;48.950;8.970;2022-09-13T15:20:45;4.00;;;0.80;;
5343;SDS011;2694;48.950;8.970;2022-09-13T15:23:15;3.10;;;0.77;;
5343;SDS011;2694;48.950;8.970;2022-09-13T15:25:46;2.33;;;0.73;;
5343;SDS011;2694;48.950;8.970;2022-09-13T15:28:19;3.13;;;0.80;;
5343;SDS011;2694;48.950;8.970;2022-09-13T15:30:49;2.85;;;0.60;;
5343;SDS011;2694;48.950;8.970;2022-09-13T15:33:24;4.30;;;0.70;;
5343;SDS011;2694;48.950;8.970;2022-09-13T15:38:53;4.82;;;1.00;;
5343;SDS011;2694;48.950;8.970;2022-09-13T15:41:22;2.20;;;0.80;;
5343;SDS011;2694;48.950;8.970;2022-09-13T15:43:55;4.70;;;2.57;;
5343;SDS011;2694;48.950;8.970;2022-09-13T15:46:24;3.60;;;1.42;;
5343;SDS011;2694;48.950;8.970;2022-09-13T15:48:51;2.55;;;0.80;;
5343;SDS011;2694;48.950;8.970;2022-09-13T15:51:20;2.65;;;0.60;;
5343;SDS011;2694;48.950;8.970;2022-09-13T15:53:47;2.87;;;0.57;;
5343;SDS011;2694;48.950;8.970;2022-09-13T15:56:16;1.00;;;0.60;;
5343;SDS011;2694;48.950;8.970;2022-09-13T15:58:44;2.40;;;0.80;;
5343;SDS011;2694;48.950;8.970;2022-09-13T16:01:12;1.50;;;0.80;;